createdAt,value
2023-03-10T00:00:58.001Z,1.30
2023-03-10T00:03:28.844Z,1.30
2023-03-10T00:06:00.239Z,1.30
2023-03-10T00:08:31.042Z,1.30
2023-03-10T00:11:02.317Z,1.40
2023-03-10T00:13:32.908Z,1.40
2023-03-10T00:16:07.579Z,1.40
2023-03-10T00:18:38.516Z,1.30
2023-03-10T00:21:09.812Z,1.30
2023-03-10T00:23:40.661Z,1.30
2023-03-10T00:26:15.022Z,1.30
2023-03-10T00:28:46.776Z,1.30
2023-03-10T00:31:25.589Z,1.30
2023-03-10T00:33:58.104Z,1.20
2023-03-10T00:36:31.617Z,1.20
2023-03-10T00:39:05.020Z,1.20
2023-03-10T00:41:39.320Z,1.20
2023-03-10T00:44:12.154Z,1.20
2023-03-10T00:46:46.634Z,1.20
2023-03-10T00:49:19.644Z,1.20
2023-03-10T00:51:51.074Z,1.20
2023-03-10T00:54:23.001Z,1.20
2023-03-10T00:56:54.280Z,1.30
2023-03-10T00:59:25.503Z,1.30
2023-03-10T01:01:59.282Z,1.30
2023-03-10T01:04:30.477Z,1.20
2023-03-10T01:07:01.692Z,1.30
2023-03-10T01:09:32.994Z,1.30
2023-03-10T01:12:04.094Z,1.30
2023-03-10T01:14:35.515Z,1.30
2023-03-10T01:17:10.742Z,1.30
2023-03-10T01:19:41.615Z,1.20
2023-03-10T01:22:12.960Z,1.20
2023-03-10T01:24:43.693Z,1.20
2023-03-10T01:27:14.519Z,1.20
2023-03-10T01:29:45.309Z,1.20
2023-03-10T01:32:19.072Z,1.20
2023-03-10T01:34:50.123Z,1.20
2023-03-10T01:37:21.461Z,1.20
2023-03-10T01:39:52.236Z,1.20
2023-03-10T01:42:23.735Z,1.20
2023-03-10T01:45:11.305Z,1.20
2023-03-10T01:47:45.386Z,1.20
2023-03-10T01:50:19.028Z,1.20
2023-03-10T01:52:58.536Z,1.20
2023-03-10T01:55:34.223Z,1.20
2023-03-10T01:58:07.727Z,1.10
2023-03-10T02:00:39.716Z,1.10
2023-03-10T02:03:20.827Z,1.10
2023-03-10T02:05:59.160Z,1.10
2023-03-10T02:08:36.808Z,1.10
2023-03-10T02:11:08.548Z,1.00
2023-03-10T02:13:39.736Z,1.00
2023-03-10T02:16:10.692Z,1.00
2023-03-10T02:18:46.920Z,1.00
2023-03-10T02:21:23.915Z,1.00
2023-03-10T02:24:01.990Z,0.90
2023-03-10T02:26:39.383Z,1.00
2023-03-10T02:29:17.442Z,1.00
2023-03-10T02:31:48.835Z,0.90
2023-03-10T02:34:20.325Z,0.90
2023-03-10T02:36:51.255Z,0.80
2023-03-10T02:39:23.231Z,0.80
2023-03-10T02:41:55.537Z,0.80
2023-03-10T02:44:30.407Z,0.80
2023-03-10T02:47:01.217Z,0.70
2023-03-10T02:49:32.891Z,0.70
2023-03-10T02:52:10.143Z,0.60
2023-03-10T02:54:41.306Z,0.50
2023-03-10T02:57:11.717Z,0.60
2023-03-10T02:59:45.695Z,0.60
2023-03-10T03:02:16.671Z,0.50
2023-03-10T03:04:48.064Z,0.50
2023-03-10T03:07:18.920Z,0.50
2023-03-10T03:09:50.105Z,0.50
2023-03-10T03:12:20.673Z,0.50
2023-03-10T03:14:54.485Z,0.50
2023-03-10T03:17:25.994Z,0.50
2023-03-10T03:19:57.404Z,0.40
2023-03-10T03:22:28.115Z,0.40
2023-03-10T03:25:00.025Z,0.40
2023-03-10T03:27:30.876Z,0.40
2023-03-10T03:30:04.745Z,0.40
2023-03-10T03:32:35.925Z,0.40
2023-03-10T03:35:13.375Z,0.40
2023-03-10T03:37:44.292Z,0.40
2023-03-10T03:40:17.538Z,0.40
2023-03-10T03:42:52.296Z,0.30
2023-03-10T03:45:28.712Z,0.40
2023-03-10T03:48:00.685Z,0.30
2023-03-10T03:50:34.937Z,0.40
2023-03-10T03:53:11.911Z,0.40
2023-03-10T03:55:43.250Z,0.40
2023-03-10T03:58:14.377Z,0.40
2023-03-10T04:00:50.430Z,0.30
2023-03-10T04:03:22.724Z,0.30
2023-03-10T04:05:54.199Z,0.30
2023-03-10T04:08:26.292Z,0.30
2023-03-10T04:10:58.971Z,0.30
2023-03-10T04:13:32.305Z,0.20
2023-03-10T04:16:06.289Z,0.20
2023-03-10T04:18:40.242Z,0.20
2023-03-10T04:21:14.310Z,0.20
2023-03-10T04:23:45.757Z,0.10
2023-03-10T04:26:21.136Z,0.10
2023-03-10T04:28:52.051Z,0.10
2023-03-10T04:31:28.079Z,0.10
2023-03-10T04:33:59.512Z,0.00
2023-03-10T04:36:31.462Z,0.00
2023-03-10T04:39:05.301Z,0.00
2023-03-10T04:41:37.110Z,0.00
2023-03-10T04:44:17.636Z,0.00
2023-03-10T04:46:59.432Z,0.00
2023-03-10T04:49:30.647Z,-0.10
2023-03-10T04:52:03.029Z,-0.10
2023-03-10T04:54:34.142Z,-0.10
2023-03-10T04:57:06.198Z,-0.10
2023-03-10T04:59:38.027Z,-0.10
2023-03-10T05:02:12.270Z,-0.10
2023-03-10T05:04:44.428Z,-0.20
2023-03-10T05:07:16.712Z,-0.20
2023-03-10T05:09:50.958Z,-0.20
2023-03-10T05:12:22.910Z,-0.30
2023-03-10T05:14:53.990Z,-0.30
2023-03-10T05:17:28.771Z,-0.30
2023-03-10T05:20:00.691Z,-0.30
2023-03-10T05:22:32.642Z,-0.30
2023-03-10T05:25:04.023Z,-0.30
2023-03-10T05:27:36.108Z,-0.30
2023-03-10T05:30:08.543Z,-0.30
2023-03-10T05:32:44.116Z,-0.30
2023-03-10T05:35:16.583Z,-0.30
2023-03-10T05:37:49.830Z,-0.30
2023-03-10T05:40:22.760Z,-0.30
2023-03-10T05:42:55.139Z,-0.40
2023-03-10T05:45:27.997Z,-0.40
2023-03-10T05:48:02.623Z,-0.40
2023-03-10T05:50:34.300Z,-0.40
2023-03-10T05:53:06.684Z,-0.40
2023-03-10T05:55:37.808Z,-0.40
2023-03-10T05:58:10.229Z,-0.40
2023-03-10T06:00:41.128Z,-0.30
2023-03-10T06:03:15.989Z,-0.40
2023-03-10T06:05:47.434Z,-0.40
2023-03-10T06:08:19.211Z,-0.40
2023-03-10T06:10:50.138Z,-0.30
2023-03-10T06:13:22.608Z,-0.40
2023-03-10T06:15:54.310Z,-0.40
2023-03-10T06:18:28.899Z,-0.40
2023-03-10T06:21:01.562Z,-0.40
2023-03-10T06:23:33.668Z,-0.50
2023-03-10T06:26:07.142Z,-0.40
2023-03-10T06:28:41.511Z,-0.40
2023-03-10T06:31:16.228Z,-0.40
2023-03-10T06:33:50.506Z,-0.40
2023-03-10T06:36:21.956Z,-0.40
2023-03-10T06:38:54.211Z,-0.40
2023-03-10T06:41:25.842Z,-0.40
2023-03-10T06:43:57.575Z,-0.40
2023-03-10T06:46:29.329Z,-0.40
2023-03-10T06:49:07.171Z,-0.40
2023-03-10T06:51:38.720Z,-0.50
2023-03-10T06:54:10.893Z,-0.50
2023-03-10T06:56:42.338Z,-0.50
2023-03-10T06:59:14.263Z,-0.50
2023-03-10T07:01:45.885Z,-0.50
2023-03-10T07:04:20.532Z,-0.50
2023-03-10T07:06:51.601Z,-0.40
2023-03-10T07:09:23.604Z,-0.40
2023-03-10T07:11:54.687Z,-0.40
2023-03-10T07:14:26.181Z,-0.40
2023-03-10T07:16:58.049Z,-0.40
2023-03-10T07:19:31.841Z,-0.30
2023-03-10T07:22:04.664Z,-0.30
2023-03-10T07:24:36.821Z,-0.30
2023-03-10T07:27:08.729Z,-0.30
2023-03-10T07:29:40.662Z,-0.30
2023-03-10T07:32:11.899Z,-0.30
2023-03-10T07:34:46.303Z,-0.30
2023-03-10T07:37:18.002Z,-0.30
2023-03-10T07:39:49.552Z,-0.30
2023-03-10T07:42:20.969Z,-0.30
2023-03-10T07:44:52.814Z,-0.30
2023-03-10T07:47:24.266Z,-0.30
2023-03-10T07:49:58.495Z,-0.30
2023-03-10T07:52:32.584Z,-0.30
2023-03-10T07:55:04.323Z,-0.30
2023-03-10T07:57:35.664Z,-0.30
2023-03-10T08:00:07.912Z,-0.20
2023-03-10T08:02:45.098Z,-0.30
2023-03-10T08:05:19.146Z,-0.30
2023-03-10T08:07:50.036Z,-0.30
2023-03-10T08:10:21.906Z,-0.30
2023-03-10T08:12:52.971Z,-0.20
2023-03-10T08:15:25.278Z,-0.30
2023-03-10T08:17:56.181Z,-0.30
2023-03-10T08:20:32.441Z,-0.30
2023-03-10T08:23:04.153Z,-0.30
2023-03-10T08:25:35.556Z,-0.30
2023-03-10T08:28:07.146Z,-0.20
2023-03-10T08:30:45.867Z,-0.20
2023-03-10T08:33:24.666Z,-0.20
2023-03-10T08:36:12.922Z,-0.10
2023-03-10T08:38:44.082Z,-0.10
2023-03-10T08:41:17.462Z,0.00
2023-03-10T08:43:49.535Z,0.00
2023-03-10T08:46:23.113Z,0.00
2023-03-10T08:48:54.197Z,0.00
2023-03-10T08:51:28.744Z,0.10
2023-03-10T08:54:00.527Z,0.20
2023-03-10T08:56:31.716Z,0.20
2023-03-10T08:59:02.524Z,0.20
2023-03-10T09:01:35.883Z,0.30
2023-03-10T09:04:08.867Z,0.40
2023-03-10T09:06:42.980Z,0.30
2023-03-10T09:09:14.854Z,0.40
2023-03-10T09:11:46.603Z,0.30
2023-03-10T09:14:19.048Z,0.30
2023-03-10T09:16:50.260Z,0.40
2023-03-10T09:19:20.791Z,0.40
2023-03-10T09:21:55.691Z,0.50
2023-03-10T09:24:26.434Z,0.50
2023-03-10T09:26:58.492Z,0.60
2023-03-10T09:29:42.596Z,0.70
2023-03-10T09:32:14.716Z,0.80
2023-03-10T09:34:45.851Z,0.80
2023-03-10T09:37:19.991Z,0.80
2023-03-10T09:39:51.308Z,0.80
2023-03-10T09:42:38.917Z,0.80
2023-03-10T09:45:29.646Z,0.80
2023-03-10T09:48:06.376Z,0.80
2023-03-10T09:50:41.875Z,0.80
2023-03-10T09:53:41.899Z,0.80
2023-03-10T09:56:18.716Z,0.90
2023-03-10T09:58:53.318Z,0.90
2023-03-10T10:01:26.608Z,0.90
2023-03-10T10:04:01.456Z,0.90
2023-03-10T10:06:36.607Z,1.00
2023-03-10T10:09:18.091Z,1.10
2023-03-10T10:11:48.882Z,1.10
2023-03-10T10:14:29.506Z,1.20
2023-03-10T10:17:06.292Z,1.20
2023-03-10T10:19:41.268Z,1.30
2023-03-10T10:22:18.277Z,1.30
2023-03-10T10:25:12.540Z,1.30
2023-03-10T10:27:45.770Z,1.30
2023-03-10T10:30:33.608Z,1.30
2023-03-10T10:33:06.104Z,1.40
2023-03-10T10:35:39.464Z,1.40
2023-03-10T10:38:21.949Z,1.40
2023-03-10T10:41:05.088Z,1.50
2023-03-10T10:43:44.785Z,1.50
2023-03-10T10:46:18.117Z,1.50
2023-03-10T10:48:51.973Z,1.50
2023-03-10T10:51:29.176Z,1.60
2023-03-10T10:54:00.987Z,1.60
2023-03-10T10:56:35.214Z,1.60
2023-03-10T10:59:09.685Z,1.60
2023-03-10T11:01:52.689Z,1.70
2023-03-10T11:04:24.746Z,1.70
2023-03-10T11:06:57.538Z,1.80
2023-03-10T11:09:28.343Z,1.80
2023-03-10T11:12:08.576Z,1.90
2023-03-10T11:14:52.681Z,1.90
2023-03-10T11:17:29.825Z,1.90
2023-03-10T11:20:10.122Z,2.00
2023-03-10T11:22:45.419Z,2.00
2023-03-10T11:25:26.635Z,2.00
2023-03-10T11:28:20.680Z,2.00
2023-03-10T11:31:01.438Z,2.10
2023-03-10T11:33:40.326Z,2.10
2023-03-10T11:36:22.576Z,2.20
2023-03-10T11:39:00.032Z,2.20
2023-03-10T11:41:36.174Z,2.30
2023-03-10T11:44:18.692Z,2.30
2023-03-10T11:46:59.649Z,2.30
2023-03-10T11:49:38.771Z,2.30
2023-03-10T11:52:15.503Z,2.30
2023-03-10T11:54:50.805Z,2.40
2023-03-10T11:57:23.552Z,2.50
2023-03-10T12:00:00.842Z,2.40
2023-03-10T12:02:36.946Z,2.50
2023-03-10T12:05:13.768Z,2.40
2023-03-10T12:07:47.386Z,2.50
2023-03-10T12:10:21.519Z,2.50
2023-03-10T12:12:54.212Z,2.50
2023-03-10T12:15:34.059Z,2.50
2023-03-10T12:18:07.258Z,2.50
2023-03-10T12:20:39.028Z,2.60
2023-03-10T12:23:34.461Z,2.60
2023-03-10T12:26:05.616Z,2.60
2023-03-10T12:28:36.053Z,2.70
2023-03-10T12:31:11.600Z,2.70
2023-03-10T12:33:58.172Z,2.80
2023-03-10T12:36:40.433Z,2.80
2023-03-10T12:39:38.741Z,2.80
2023-03-10T12:42:31.619Z,2.80
2023-03-10T12:45:28.708Z,2.90
2023-03-10T12:48:07.798Z,2.90
2023-03-10T12:50:49.681Z,2.90
2023-03-10T12:53:31.657Z,3.00
2023-03-10T12:56:22.596Z,3.00
2023-03-10T12:59:00.540Z,3.00
2023-03-10T13:01:40.566Z,3.10
2023-03-10T13:04:20.041Z,3.20
2023-03-10T13:06:52.206Z,3.30
2023-03-10T13:09:29.496Z,3.30
2023-03-10T13:12:03.418Z,3.30
2023-03-10T13:14:40.309Z,3.30
2023-03-10T13:17:23.112Z,3.40
2023-03-10T13:20:08.715Z,3.40
2023-03-10T13:22:39.588Z,3.40
2023-03-10T13:25:16.373Z,3.50
2023-03-10T13:27:47.438Z,3.50
2023-03-10T13:30:22.136Z,3.50
2023-03-10T13:32:57.703Z,3.60
2023-03-10T13:35:36.165Z,3.60
2023-03-10T13:38:09.221Z,3.60
2023-03-10T13:40:42.677Z,3.60
2023-03-10T13:43:34.157Z,3.70
2023-03-10T13:46:09.869Z,3.70
2023-03-10T13:48:42.738Z,3.80
2023-03-10T13:51:24.736Z,3.80
2023-03-10T13:53:58.882Z,3.90
2023-03-10T13:56:32.531Z,4.00
2023-03-10T13:59:04.627Z,4.00
2023-03-10T14:01:39.075Z,4.00
2023-03-10T14:04:11.529Z,4.10
2023-03-10T14:06:45.353Z,4.10
2023-03-10T14:09:18.627Z,4.10
2023-03-10T14:11:50.265Z,4.20
2023-03-10T14:14:31.336Z,4.20
2023-03-10T14:17:04.318Z,4.20
2023-03-10T14:19:48.633Z,4.30
2023-03-10T14:22:46.412Z,4.40
2023-03-10T14:25:20.304Z,4.40
2023-03-10T14:27:58.051Z,4.40
2023-03-10T14:30:30.979Z,4.50
2023-03-10T14:33:03.507Z,4.60
2023-03-10T14:35:34.257Z,4.70
2023-03-10T14:38:07.986Z,4.70
2023-03-10T14:40:43.733Z,4.70
2023-03-10T14:43:18.715Z,4.70
2023-03-10T14:45:51.512Z,4.70
2023-03-10T14:48:26.423Z,4.80
2023-03-10T14:50:57.600Z,4.80
2023-03-10T14:53:32.131Z,4.80
2023-03-10T14:56:04.856Z,4.80
2023-03-10T14:58:40.103Z,4.80
2023-03-10T15:01:10.883Z,4.80
2023-03-10T15:03:42.015Z,4.80
2023-03-10T15:06:15.029Z,4.90
2023-03-10T15:08:48.900Z,4.90
2023-03-10T15:11:35.733Z,4.90
2023-03-10T15:14:13.454Z,4.90
2023-03-10T15:16:44.607Z,4.90
2023-03-10T15:19:21.236Z,4.90
2023-03-10T15:21:52.129Z,5.00
2023-03-10T15:24:25.917Z,5.00
2023-03-10T15:26:57.104Z,5.00
2023-03-10T15:29:28.222Z,5.00
2023-03-10T15:31:58.833Z,5.00
2023-03-10T15:34:29.952Z,5.00
2023-03-10T15:37:01.302Z,5.10
2023-03-10T15:39:37.103Z,5.10
2023-03-10T15:42:08.336Z,5.10
2023-03-10T15:44:40.154Z,5.10
2023-03-10T15:47:11.099Z,5.20
2023-03-10T15:49:42.736Z,5.20
2023-03-10T15:52:16.910Z,5.20
2023-03-10T15:54:50.683Z,5.30
2023-03-10T15:57:21.492Z,5.30
2023-03-10T15:59:53.708Z,5.30
2023-03-10T16:02:24.470Z,5.30
2023-03-10T16:04:55.949Z,5.30
2023-03-10T16:07:27.700Z,5.40
2023-03-10T16:10:01.473Z,5.40
2023-03-10T16:12:32.644Z,5.40
2023-03-10T16:15:03.774Z,5.40
2023-03-10T16:17:35.495Z,5.40
2023-03-10T16:20:12.298Z,5.40
2023-03-10T16:22:44.505Z,5.40
2023-03-10T16:25:19.682Z,5.50
2023-03-10T16:27:50.601Z,5.50
2023-03-10T16:30:22.924Z,5.50
2023-03-10T16:32:54.307Z,5.50
2023-03-10T16:35:25.649Z,5.50
2023-03-10T16:37:57.394Z,5.50
2023-03-10T16:40:31.396Z,5.50
2023-03-10T16:43:02.142Z,5.50
2023-03-10T16:45:33.503Z,5.60
2023-03-10T16:48:04.326Z,5.60
2023-03-10T16:50:36.564Z,5.60
2023-03-10T16:53:08.789Z,5.60
2023-03-10T16:55:42.816Z,5.60
2023-03-10T16:58:14.136Z,5.60
2023-03-10T17:00:45.303Z,5.70
2023-03-10T17:03:16.281Z,5.70
2023-03-10T17:05:49.208Z,5.70
2023-03-10T17:08:20.053Z,5.70
2023-03-10T17:10:53.726Z,5.80
2023-03-10T17:13:24.649Z,5.80
2023-03-10T17:15:55.726Z,5.80
2023-03-10T17:18:26.580Z,5.80
2023-03-10T17:20:57.678Z,5.90
2023-03-10T17:23:28.653Z,5.90
2023-03-10T17:26:03.041Z,5.90
2023-03-10T17:28:34.037Z,6.00
2023-03-10T17:31:09.253Z,6.00
2023-03-10T17:33:40.983Z,6.00
2023-03-10T17:36:15.285Z,6.00
2023-03-10T17:38:46.937Z,6.10
2023-03-10T17:41:20.780Z,6.10
2023-03-10T17:43:52.267Z,6.10
2023-03-10T17:46:25.221Z,6.10
2023-03-10T17:48:57.379Z,6.10
2023-03-10T17:51:33.481Z,6.10
2023-03-10T17:54:04.960Z,6.10
2023-03-10T17:56:39.140Z,6.20
2023-03-10T17:59:10.166Z,6.20
2023-03-10T18:01:41.696Z,6.10
2023-03-10T18:04:13.863Z,6.20
2023-03-10T18:06:45.891Z,6.20
2023-03-10T18:09:18.556Z,6.20
2023-03-10T18:11:52.881Z,6.20
2023-03-10T18:14:23.719Z,6.20
2023-03-10T18:16:55.444Z,6.30
2023-03-10T18:19:26.520Z,6.20
2023-03-10T18:21:58.636Z,6.30
2023-03-10T18:24:29.882Z,6.30
2023-03-10T18:27:04.620Z,6.40
2023-03-10T18:29:35.436Z,6.40
2023-03-10T18:32:06.852Z,6.40
2023-03-10T18:34:37.647Z,6.40
2023-03-10T18:37:08.879Z,6.40
2023-03-10T18:39:40.981Z,6.40
2023-03-10T18:42:16.137Z,6.50
2023-03-10T18:44:49.230Z,6.50
2023-03-10T18:47:20.418Z,6.50
2023-03-10T18:49:51.605Z,6.50
2023-03-10T18:52:22.836Z,6.50
2023-03-10T18:54:53.740Z,6.50
2023-03-10T18:57:27.431Z,6.50
2023-03-10T19:00:00.733Z,6.60
2023-03-10T19:02:32.256Z,6.60
2023-03-10T19:05:05.242Z,6.60
2023-03-10T19:07:37.369Z,6.60
2023-03-10T19:10:09.247Z,6.60
2023-03-10T19:12:43.768Z,6.60
2023-03-10T19:15:16.245Z,6.60
2023-03-10T19:17:47.426Z,6.60
2023-03-10T19:20:20.373Z,6.60
2023-03-10T19:22:53.038Z,6.60
2023-03-10T19:25:24.545Z,6.70
2023-03-10T19:27:58.338Z,6.70
2023-03-10T19:30:29.324Z,6.70
2023-03-10T19:33:00.469Z,6.70
2023-03-10T19:35:33.788Z,6.70
2023-03-10T19:38:05.747Z,6.70
2023-03-10T19:40:37.095Z,6.80
2023-03-10T19:43:10.807Z,6.80
2023-03-10T19:45:41.639Z,6.80
2023-03-10T19:48:12.783Z,6.80
2023-03-10T19:50:43.535Z,6.90
2023-03-10T19:53:14.783Z,6.90
2023-03-10T19:55:45.273Z,6.90
2023-03-10T19:58:19.265Z,6.90
2023-03-10T20:00:50.476Z,6.90
2023-03-10T20:03:23.412Z,6.90
2023-03-10T20:05:54.954Z,6.90
2023-03-10T20:08:26.816Z,6.90
2023-03-10T20:11:02.490Z,6.90
2023-03-10T20:13:36.838Z,6.90
2023-03-10T20:16:08.530Z,6.90
2023-03-10T20:18:39.811Z,6.90
2023-03-10T20:21:10.770Z,6.80
2023-03-10T20:23:47.672Z,6.80
2023-03-10T20:26:19.309Z,6.80
2023-03-10T20:28:53.616Z,6.80
2023-03-10T20:31:26.415Z,6.80
2023-03-10T20:33:57.745Z,6.80
2023-03-10T20:36:28.270Z,6.80
2023-03-10T20:38:59.697Z,6.80
2023-03-10T20:41:34.755Z,6.70
2023-03-10T20:44:14.296Z,6.70
2023-03-10T20:46:46.641Z,6.60
2023-03-10T20:49:18.672Z,6.60
2023-03-10T20:51:49.559Z,6.50
2023-03-10T20:54:20.998Z,6.50
2023-03-10T20:56:52.173Z,6.40
2023-03-10T20:59:26.027Z,6.40
2023-03-10T21:01:58.826Z,6.30
2023-03-10T21:04:30.486Z,6.30
2023-03-10T21:07:01.582Z,6.30
2023-03-10T21:09:33.001Z,6.30
2023-03-10T21:12:03.717Z,6.20
2023-03-10T21:14:39.976Z,6.10
2023-03-10T21:17:10.921Z,6.10
2023-03-10T21:19:42.085Z,6.10
2023-03-10T21:22:13.212Z,6.00
2023-03-10T21:24:44.263Z,6.00
2023-03-10T21:27:15.762Z,6.00
2023-03-10T21:29:49.923Z,6.00
2023-03-10T21:32:20.756Z,6.00
2023-03-10T21:34:52.177Z,6.00
2023-03-10T21:37:23.700Z,5.90
2023-03-10T21:39:55.451Z,5.90
2023-03-10T21:42:31.366Z,5.90
2023-03-10T21:45:07.058Z,5.90
2023-03-10T21:47:38.088Z,5.90
2023-03-10T21:50:11.492Z,5.90
2023-03-10T21:52:42.467Z,5.90
2023-03-10T21:55:20.473Z,5.90
2023-03-10T21:57:51.451Z,6.00
2023-03-10T22:00:25.975Z,5.90
2023-03-10T22:02:59.905Z,5.90
2023-03-10T22:05:31.905Z,6.00
2023-03-10T22:08:03.301Z,6.00
2023-03-10T22:10:35.062Z,5.90
2023-03-10T22:13:05.974Z,6.00
2023-03-10T22:15:39.739Z,6.00
2023-03-10T22:18:11.011Z,5.90
2023-03-10T22:20:42.270Z,6.00
2023-03-10T22:23:13.161Z,5.90
2023-03-10T22:25:44.302Z,5.90
2023-03-10T22:28:15.036Z,5.90
2023-03-10T22:30:48.687Z,5.90
2023-03-10T22:33:19.433Z,5.90
2023-03-10T22:35:52.428Z,6.00
2023-03-10T22:38:23.774Z,6.00
2023-03-10T22:40:54.902Z,6.00
2023-03-10T22:43:25.643Z,6.00
2023-03-10T22:46:00.101Z,6.00
2023-03-10T22:48:31.811Z,6.00
2023-03-10T22:51:03.383Z,6.00
2023-03-10T22:53:35.327Z,6.00
2023-03-10T22:56:08.523Z,6.00
2023-03-10T22:58:39.703Z,6.00
2023-03-10T23:01:13.589Z,6.00
2023-03-10T23:03:45.486Z,6.00
2023-03-10T23:06:17.116Z,5.90
2023-03-10T23:08:48.818Z,5.90
2023-03-10T23:11:20.503Z,5.90
2023-03-10T23:13:51.780Z,5.90
2023-03-10T23:16:25.831Z,5.90
2023-03-10T23:18:56.778Z,5.90
2023-03-10T23:21:28.013Z,5.80
2023-03-10T23:23:59.354Z,5.80
2023-03-10T23:26:31.618Z,5.80
2023-03-10T23:29:03.004Z,5.80
2023-03-10T23:31:37.150Z,5.80
2023-03-10T23:34:08.056Z,5.80
2023-03-10T23:36:40.241Z,5.80
2023-03-10T23:39:13.729Z,5.70
2023-03-10T23:41:45.743Z,5.70
2023-03-10T23:44:16.951Z,5.70
2023-03-10T23:46:53.991Z,5.70
2023-03-10T23:49:25.248Z,5.70
2023-03-10T23:51:56.721Z,5.70
2023-03-10T23:54:28.454Z,5.70
2023-03-10T23:56:59.855Z,5.70
2023-03-10T23:59:31.053Z,5.70
